Airport Name : Travis AFB

Other Name : Travis AFB

ICAO : KSUU

IATA :

FAA : SUU

Latitude : 38.262692

Longitude : -121.927464

Country : United States

Local Date and Time : 22 Oct 2020 11:18

 

TAF (Terminal Aerodrome Forecast)

 

METAR (METeorological Aerodrome Report)

KSUU 221758Z AUTO 02013G20KT 10SM CLR 24/M04 A2988 RMK AO2 PK WND 34026/32 SLP125 T02401042 10240 20128 51014 $

KSUU 221658Z AUTO 02013G17KT 10SM CLR 22/M04 A2987 RMK AO2 PK WND 01026/55 SLP121 T02221040 $

KSUU 221558Z AUTO 01005KT 10SM CLR 20/M02 A2986 RMK AO2 SLP118 T02031021 $

KSUU 221458Z AUTO 30003KT 10SM CLR 17/M02 A2984 RMK AO2 SLP111 T01681018 52017 $

To Charter a Jet Click here.